Destinations Stuttgart Airport

Stuttgart Airport (EDDS / STR)

Flights to Stuttgart Airport

Flight number From ETE Dispatch
SPY-112 EHGG Groningen Airport Eelde 01:30

Flights from Stuttgart Airport

Flight number To ETE Dispatch
SPY-113 EHGG Groningen Airport Eelde
About

Stuttgart Airport facts

Stuttgart Airport is located in Stuttgart at an elevation of 388.9 meters or 1276 feet.

Currently, Speedy Airlines serves 2 flights to and from Stuttgart Airport.

Detailed airport info

Route map

Weather

Current weather

METAR

METAR

Metar data retrieved Sunday, 21 July 2024 at 20:25 UTC

EDDS 211950Z AUTO 28006KT CAVOK 23/15 Q1013 NOSIG
Wind Temperature
6 kt 23c